sensor_id;sensor_type;location;lat;lon;timestamp;temperature;humidity
10083;DHT22;5080;48.528;8.078;2023-06-22T00:02:16;24.50;99.90
10083;DHT22;5080;48.528;8.078;2023-06-22T00:04:43;24.50;99.90
10083;DHT22;5080;48.528;8.078;2023-06-22T00:07:10;24.60;99.90
10083;DHT22;5080;48.528;8.078;2023-06-22T00:09:37;24.70;99.90
10083;DHT22;5080;48.528;8.078;2023-06-22T00:12:05;24.70;99.90
10083;DHT22;5080;48.528;8.078;2023-06-22T00:14:34;24.70;99.90
10083;DHT22;5080;48.528;8.078;2023-06-22T00:17:00;24.60;99.90
10083;DHT22;5080;48.528;8.078;2023-06-22T00:19:27;24.40;99.90
10083;DHT22;5080;48.528;8.078;2023-06-22T00:21:54;24.50;99.90
10083;DHT22;5080;48.528;8.078;2023-06-22T00:24:25;24.50;99.90
10083;DHT22;5080;48.528;8.078;2023-06-22T00:26:52;24.40;99.90
10083;DHT22;5080;48.528;8.078;2023-06-22T00:29:19;24.40;99.90
10083;DHT22;5080;48.528;8.078;2023-06-22T00:31:47;24.40;99.90
10083;DHT22;5080;48.528;8.078;2023-06-22T00:34:14;24.30;99.90
10083;DHT22;5080;48.528;8.078;2023-06-22T00:36:41;24.30;99.90
10083;DHT22;5080;48.528;8.078;2023-06-22T00:39:07;24.20;99.90
10083;DHT22;5080;48.528;8.078;2023-06-22T00:41:34;24.10;99.90
10083;DHT22;5080;48.528;8.078;2023-06-22T00:44:01;24.20;99.90
10083;DHT22;5080;48.528;8.078;2023-06-22T00:46:28;24.20;99.90
10083;DHT22;5080;48.528;8.078;2023-06-22T00:48:56;24.10;99.90
10083;DHT22;5080;48.528;8.078;2023-06-22T00:51:23;24.00;99.90
10083;DHT22;5080;48.528;8.078;2023-06-22T00:53:50;24.00;99.90
10083;DHT22;5080;48.528;8.078;2023-06-22T00:56:18;23.90;99.90
10083;DHT22;5080;48.528;8.078;2023-06-22T00:58:50;23.80;99.90
10083;DHT22;5080;48.528;8.078;2023-06-22T01:01:19;23.70;99.90
10083;DHT22;5080;48.528;8.078;2023-06-22T01:03:49;23.70;99.90
10083;DHT22;5080;48.528;8.078;2023-06-22T01:06:26;23.60;99.90
10083;DHT22;5080;48.528;8.078;2023-06-22T01:09:02;23.60;99.90
10083;DHT22;5080;48.528;8.078;2023-06-22T01:11:35;23.60;99.90
10083;DHT22;5080;48.528;8.078;2023-06-22T01:14:07;23.50;99.90
10083;DHT22;5080;48.528;8.078;2023-06-22T01:16:40;23.40;99.90
10083;DHT22;5080;48.528;8.078;2023-06-22T01:19:20;23.30;99.90
10083;DHT22;5080;48.528;8.078;2023-06-22T01:21:51;23.20;99.90
10083;DHT22;5080;48.528;8.078;2023-06-22T01:24:23;23.20;99.90
10083;DHT22;5080;48.528;8.078;2023-06-22T01:26:57;23.10;99.90
10083;DHT22;5080;48.528;8.078;2023-06-22T01:29:28;23.10;99.90
10083;DHT22;5080;48.528;8.078;2023-06-22T01:31:56;23.10;99.90
10083;DHT22;5080;48.528;8.078;2023-06-22T01:34:24;23.00;99.90
10083;DHT22;5080;48.528;8.078;2023-06-22T01:36:51;23.00;99.90
10083;DHT22;5080;48.528;8.078;2023-06-22T01:39:19;23.00;99.90
10083;DHT22;5080;48.528;8.078;2023-06-22T01:41:48;22.90;99.90
10083;DHT22;5080;48.528;8.078;2023-06-22T01:44:15;22.90;99.90
10083;DHT22;5080;48.528;8.078;2023-06-22T01:46:44;23.00;99.90
10083;DHT22;5080;48.528;8.078;2023-06-22T01:49:11;22.90;99.90
10083;DHT22;5080;48.528;8.078;2023-06-22T01:51:38;22.90;99.90
10083;DHT22;5080;48.528;8.078;2023-06-22T01:54:06;22.80;99.90
10083;DHT22;5080;48.528;8.078;2023-06-22T01:56:34;22.70;99.90
10083;DHT22;5080;48.528;8.078;2023-06-22T01:59:08;22.60;99.90
10083;DHT22;5080;48.528;8.078;2023-06-22T02:01:44;22.60;99.90
10083;DHT22;5080;48.528;8.078;2023-06-22T02:04:20;22.60;99.90
10083;DHT22;5080;48.528;8.078;2023-06-22T02:06:52;22.70;99.90
10083;DHT22;5080;48.528;8.078;2023-06-22T02:09:23;22.70;99.90
10083;DHT22;5080;48.528;8.078;2023-06-22T02:11:51;22.60;99.90
10083;DHT22;5080;48.528;8.078;2023-06-22T02:14:21;22.60;99.90
10083;DHT22;5080;48.528;8.078;2023-06-22T02:16:50;22.60;99.90
10083;DHT22;5080;48.528;8.078;2023-06-22T02:19:17;22.60;99.90
10083;DHT22;5080;48.528;8.078;2023-06-22T02:21:48;22.60;99.90
10083;DHT22;5080;48.528;8.078;2023-06-22T02:24:15;22.50;99.90
10083;DHT22;5080;48.528;8.078;2023-06-22T02:26:43;22.50;99.90
10083;DHT22;5080;48.528;8.078;2023-06-22T02:29:11;22.50;99.90
10083;DHT22;5080;48.528;8.078;2023-06-22T02:31:37;22.50;99.90
10083;DHT22;5080;48.528;8.078;2023-06-22T02:34:06;22.40;99.90
10083;DHT22;5080;48.528;8.078;2023-06-22T02:36:33;22.40;99.90
10083;DHT22;5080;48.528;8.078;2023-06-22T02:38:59;22.40;99.90
10083;DHT22;5080;48.528;8.078;2023-06-22T02:41:29;22.40;99.90
10083;DHT22;5080;48.528;8.078;2023-06-22T02:43:56;22.40;99.90
10083;DHT22;5080;48.528;8.078;2023-06-22T02:46:22;22.40;99.90
10083;DHT22;5080;48.528;8.078;2023-06-22T02:48:49;22.40;99.90
10083;DHT22;5080;48.528;8.078;2023-06-22T02:51:17;22.40;99.90
10083;DHT22;5080;48.528;8.078;2023-06-22T02:53:44;22.30;99.90
10083;DHT22;5080;48.528;8.078;2023-06-22T02:56:11;22.30;99.90
10083;DHT22;5080;48.528;8.078;2023-06-22T02:58:38;22.30;99.90
10083;DHT22;5080;48.528;8.078;2023-06-22T03:01:05;22.30;99.90
10083;DHT22;5080;48.528;8.078;2023-06-22T03:03:32;22.30;99.90
10083;DHT22;5080;48.528;8.078;2023-06-22T03:05:59;22.30;99.90
10083;DHT22;5080;48.528;8.078;2023-06-22T03:08:29;22.30;99.90
10083;DHT22;5080;48.528;8.078;2023-06-22T03:10:55;22.30;99.90
10083;DHT22;5080;48.528;8.078;2023-06-22T03:13:23;22.30;99.90
10083;DHT22;5080;48.528;8.078;2023-06-22T03:15:50;22.30;99.90
10083;DHT22;5080;48.528;8.078;2023-06-22T03:18:18;22.30;99.90
10083;DHT22;5080;48.528;8.078;2023-06-22T03:20:45;22.30;99.90
10083;DHT22;5080;48.528;8.078;2023-06-22T03:23:12;22.30;99.90
10083;DHT22;5080;48.528;8.078;2023-06-22T03:25:41;22.30;99.90
10083;DHT22;5080;48.528;8.078;2023-06-22T03:28:10;22.30;99.90
10083;DHT22;5080;48.528;8.078;2023-06-22T03:30:37;22.30;99.90
10083;DHT22;5080;48.528;8.078;2023-06-22T03:33:03;22.30;99.90
10083;DHT22;5080;48.528;8.078;2023-06-22T03:35:30;22.40;99.90
10083;DHT22;5080;48.528;8.078;2023-06-22T03:37:57;22.40;99.90
10083;DHT22;5080;48.528;8.078;2023-06-22T03:40:24;22.40;99.90
10083;DHT22;5080;48.528;8.078;2023-06-22T03:42:52;22.40;99.90
10083;DHT22;5080;48.528;8.078;2023-06-22T03:45:19;22.40;99.90
10083;DHT22;5080;48.528;8.078;2023-06-22T03:47:45;22.30;99.90
10083;DHT22;5080;48.528;8.078;2023-06-22T03:50:12;22.30;99.90
10083;DHT22;5080;48.528;8.078;2023-06-22T03:52:40;22.30;99.90
10083;DHT22;5080;48.528;8.078;2023-06-22T03:55:07;22.30;99.90
10083;DHT22;5080;48.528;8.078;2023-06-22T03:57:34;22.40;99.90
10083;DHT22;5080;48.528;8.078;2023-06-22T04:00:03;22.40;99.90
10083;DHT22;5080;48.528;8.078;2023-06-22T04:02:31;22.40;99.90
10083;DHT22;5080;48.528;8.078;2023-06-22T04:04:58;22.50;99.90
10083;DHT22;5080;48.528;8.078;2023-06-22T04:07:25;22.60;99.90
10083;DHT22;5080;48.528;8.078;2023-06-22T04:09:51;22.60;99.90
10083;DHT22;5080;48.528;8.078;2023-06-22T04:12:18;22.60;99.90
10083;DHT22;5080;48.528;8.078;2023-06-22T04:14:45;22.60;99.90
10083;DHT22;5080;48.528;8.078;2023-06-22T04:17:13;22.60;99.90
10083;DHT22;5080;48.528;8.078;2023-06-22T04:19:41;22.60;99.90
10083;DHT22;5080;48.528;8.078;2023-06-22T04:22:08;22.60;99.90
10083;DHT22;5080;48.528;8.078;2023-06-22T04:24:35;22.60;99.90
10083;DHT22;5080;48.528;8.078;2023-06-22T04:27:02;22.70;99.90
10083;DHT22;5080;48.528;8.078;2023-06-22T04:29:30;22.70;99.90
10083;DHT22;5080;48.528;8.078;2023-06-22T04:31:57;22.70;99.90
10083;DHT22;5080;48.528;8.078;2023-06-22T04:34:29;22.70;99.90
10083;DHT22;5080;48.528;8.078;2023-06-22T04:36:57;22.80;99.90
10083;DHT22;5080;48.528;8.078;2023-06-22T04:39:24;22.80;99.90
10083;DHT22;5080;48.528;8.078;2023-06-22T04:41:52;22.80;99.90
10083;DHT22;5080;48.528;8.078;2023-06-22T04:44:20;22.70;99.90
10083;DHT22;5080;48.528;8.078;2023-06-22T04:46:50;22.80;99.90
10083;DHT22;5080;48.528;8.078;2023-06-22T04:49:20;22.70;99.90
10083;DHT22;5080;48.528;8.078;2023-06-22T04:51:48;22.60;99.90
10083;DHT22;5080;48.528;8.078;2023-06-22T04:54:17;22.60;99.90
10083;DHT22;5080;48.528;8.078;2023-06-22T04:56:44;22.60;99.90
10083;DHT22;5080;48.528;8.078;2023-06-22T04:59:12;22.60;99.90
10083;DHT22;5080;48.528;8.078;2023-06-22T05:01:39;22.70;99.90
10083;DHT22;5080;48.528;8.078;2023-06-22T05:04:06;22.80;99.90
10083;DHT22;5080;48.528;8.078;2023-06-22T05:06:33;22.80;99.90
10083;DHT22;5080;48.528;8.078;2023-06-22T05:09:01;22.80;99.90
10083;DHT22;5080;48.528;8.078;2023-06-22T05:11:28;22.90;99.90
10083;DHT22;5080;48.528;8.078;2023-06-22T05:13:56;23.00;99.90
10083;DHT22;5080;48.528;8.078;2023-06-22T05:16:23;23.40;99.90
10083;DHT22;5080;48.528;8.078;2023-06-22T05:18:51;23.60;99.90
10083;DHT22;5080;48.528;8.078;2023-06-22T05:21:21;23.30;99.90
10083;DHT22;5080;48.528;8.078;2023-06-22T05:23:48;23.10;99.90
10083;DHT22;5080;48.528;8.078;2023-06-22T05:26:17;23.00;99.90
10083;DHT22;5080;48.528;8.078;2023-06-22T05:28:44;22.80;99.90
10083;DHT22;5080;48.528;8.078;2023-06-22T05:31:12;22.80;99.90
10083;DHT22;5080;48.528;8.078;2023-06-22T05:33:40;22.80;99.90
10083;DHT22;5080;48.528;8.078;2023-06-22T05:36:07;22.90;99.90
10083;DHT22;5080;48.528;8.078;2023-06-22T05:38:34;22.90;99.90
10083;DHT22;5080;48.528;8.078;2023-06-22T05:41:01;23.10;99.90
10083;DHT22;5080;48.528;8.078;2023-06-22T05:43:29;23.30;99.90
10083;DHT22;5080;48.528;8.078;2023-06-22T05:45:56;23.40;99.90
10083;DHT22;5080;48.528;8.078;2023-06-22T05:48:23;23.60;99.90
10083;DHT22;5080;48.528;8.078;2023-06-22T05:50:50;23.70;99.90
10083;DHT22;5080;48.528;8.078;2023-06-22T05:53:17;23.80;99.90
10083;DHT22;5080;48.528;8.078;2023-06-22T05:55:44;23.70;99.90
10083;DHT22;5080;48.528;8.078;2023-06-22T05:58:11;23.70;99.90
10083;DHT22;5080;48.528;8.078;2023-06-22T06:00:40;23.80;99.90
10083;DHT22;5080;48.528;8.078;2023-06-22T06:03:08;23.90;99.90
10083;DHT22;5080;48.528;8.078;2023-06-22T06:05:36;24.00;99.90
10083;DHT22;5080;48.528;8.078;2023-06-22T06:08:04;23.90;99.90
10083;DHT22;5080;48.528;8.078;2023-06-22T06:10:32;24.00;99.90
10083;DHT22;5080;48.528;8.078;2023-06-22T06:12:59;24.10;99.90
10083;DHT22;5080;48.528;8.078;2023-06-22T06:15:30;24.20;99.90
10083;DHT22;5080;48.528;8.078;2023-06-22T06:17:58;24.20;99.90
10083;DHT22;5080;48.528;8.078;2023-06-22T06:20:26;24.30;99.90
10083;DHT22;5080;48.528;8.078;2023-06-22T06:22:54;24.40;99.90
10083;DHT22;5080;48.528;8.078;2023-06-22T06:25:21;24.40;99.90
10083;DHT22;5080;48.528;8.078;2023-06-22T06:27:49;24.50;99.90
10083;DHT22;5080;48.528;8.078;2023-06-22T06:30:18;24.60;99.90
10083;DHT22;5080;48.528;8.078;2023-06-22T06:32:45;24.50;99.90
10083;DHT22;5080;48.528;8.078;2023-06-22T06:35:14;24.50;99.90
10083;DHT22;5080;48.528;8.078;2023-06-22T06:37:43;24.60;99.90
10083;DHT22;5080;48.528;8.078;2023-06-22T06:40:11;24.70;99.90
10083;DHT22;5080;48.528;8.078;2023-06-22T06:42:39;24.70;99.90
10083;DHT22;5080;48.528;8.078;2023-06-22T06:45:08;24.80;99.90
10083;DHT22;5080;48.528;8.078;2023-06-22T06:47:35;24.90;99.90
10083;DHT22;5080;48.528;8.078;2023-06-22T06:50:02;24.80;99.90
10083;DHT22;5080;48.528;8.078;2023-06-22T06:52:30;24.60;99.90
10083;DHT22;5080;48.528;8.078;2023-06-22T06:54:58;24.40;99.90
10083;DHT22;5080;48.528;8.078;2023-06-22T06:57:25;24.60;99.90
10083;DHT22;5080;48.528;8.078;2023-06-22T06:59:54;24.80;99.90
10083;DHT22;5080;48.528;8.078;2023-06-22T07:02:21;25.10;99.90
10083;DHT22;5080;48.528;8.078;2023-06-22T07:04:48;25.10;99.90
10083;DHT22;5080;48.528;8.078;2023-06-22T07:07:16;25.10;99.90
10083;DHT22;5080;48.528;8.078;2023-06-22T07:09:44;25.00;99.90
10083;DHT22;5080;48.528;8.078;2023-06-22T07:12:11;25.00;99.90
10083;DHT22;5080;48.528;8.078;2023-06-22T07:14:37;25.10;99.90
10083;DHT22;5080;48.528;8.078;2023-06-22T07:17:04;25.10;99.90
10083;DHT22;5080;48.528;8.078;2023-06-22T07:19:33;25.20;99.90
10083;DHT22;5080;48.528;8.078;2023-06-22T07:22:00;25.20;99.90
10083;DHT22;5080;48.528;8.078;2023-06-22T07:24:27;25.00;99.90
10083;DHT22;5080;48.528;8.078;2023-06-22T07:26:55;24.90;99.90
10083;DHT22;5080;48.528;8.078;2023-06-22T07:29:24;25.00;99.90
10083;DHT22;5080;48.528;8.078;2023-06-22T07:31:52;24.80;99.90
10083;DHT22;5080;48.528;8.078;2023-06-22T07:34:19;24.90;99.90
10083;DHT22;5080;48.528;8.078;2023-06-22T07:36:46;25.00;99.90
10083;DHT22;5080;48.528;8.078;2023-06-22T07:39:13;25.10;99.90
10083;DHT22;5080;48.528;8.078;2023-06-22T07:41:40;25.20;99.90
10083;DHT22;5080;48.528;8.078;2023-06-22T07:44:09;25.40;99.90
10083;DHT22;5080;48.528;8.078;2023-06-22T07:46:36;25.50;99.90
10083;DHT22;5080;48.528;8.078;2023-06-22T07:49:02;25.50;99.90
10083;DHT22;5080;48.528;8.078;2023-06-22T07:51:29;25.50;99.90
10083;DHT22;5080;48.528;8.078;2023-06-22T07:53:56;25.40;99.90
10083;DHT22;5080;48.528;8.078;2023-06-22T07:56:23;25.20;99.90
10083;DHT22;5080;48.528;8.078;2023-06-22T07:58:50;25.20;99.90
10083;DHT22;5080;48.528;8.078;2023-06-22T08:01:18;25.30;99.90
10083;DHT22;5080;48.528;8.078;2023-06-22T08:03:47;25.30;99.90
10083;DHT22;5080;48.528;8.078;2023-06-22T08:06:14;25.60;99.90
10083;DHT22;5080;48.528;8.078;2023-06-22T08:08:40;25.90;99.90
10083;DHT22;5080;48.528;8.078;2023-06-22T08:11:08;26.10;99.90
10083;DHT22;5080;48.528;8.078;2023-06-22T08:13:34;26.20;99.90
10083;DHT22;5080;48.528;8.078;2023-06-22T08:16:01;26.30;99.90
10083;DHT22;5080;48.528;8.078;2023-06-22T08:18:30;26.40;99.90
10083;DHT22;5080;48.528;8.078;2023-06-22T08:20:56;26.70;99.90
10083;DHT22;5080;48.528;8.078;2023-06-22T08:23:23;26.80;99.90
10083;DHT22;5080;48.528;8.078;2023-06-22T08:25:50;26.80;99.90
10083;DHT22;5080;48.528;8.078;2023-06-22T08:28:17;27.00;99.90
10083;DHT22;5080;48.528;8.078;2023-06-22T08:30:44;26.90;99.90
10083;DHT22;5080;48.528;8.078;2023-06-22T08:33:10;26.80;99.90
10083;DHT22;5080;48.528;8.078;2023-06-22T08:35:39;26.80;99.90
10083;DHT22;5080;48.528;8.078;2023-06-22T08:38:06;27.00;99.90
10083;DHT22;5080;48.528;8.078;2023-06-22T08:40:34;27.00;99.90
10083;DHT22;5080;48.528;8.078;2023-06-22T08:43:01;27.10;99.90
10083;DHT22;5080;48.528;8.078;2023-06-22T08:45:27;27.30;99.90
10083;DHT22;5080;48.528;8.078;2023-06-22T08:47:54;27.50;99.90
10083;DHT22;5080;48.528;8.078;2023-06-22T08:50:21;27.50;99.90
10083;DHT22;5080;48.528;8.078;2023-06-22T08:52:49;27.50;99.90
10083;DHT22;5080;48.528;8.078;2023-06-22T08:55:16;27.30;99.90
10083;DHT22;5080;48.528;8.078;2023-06-22T08:57:43;27.50;99.90
10083;DHT22;5080;48.528;8.078;2023-06-22T09:00:11;27.70;99.90
10083;DHT22;5080;48.528;8.078;2023-06-22T09:02:46;27.90;99.90
10083;DHT22;5080;48.528;8.078;2023-06-22T09:05:13;27.80;99.90
10083;DHT22;5080;48.528;8.078;2023-06-22T09:07:40;27.80;99.90
10083;DHT22;5080;48.528;8.078;2023-06-22T09:10:09;27.90;99.90
10083;DHT22;5080;48.528;8.078;2023-06-22T09:12:36;27.90;99.90
10083;DHT22;5080;48.528;8.078;2023-06-22T09:15:04;28.00;99.90
10083;DHT22;5080;48.528;8.078;2023-06-22T09:17:33;28.00;99.90
10083;DHT22;5080;48.528;8.078;2023-06-22T09:20:00;28.00;99.90
10083;DHT22;5080;48.528;8.078;2023-06-22T09:22:28;27.80;99.90
10083;DHT22;5080;48.528;8.078;2023-06-22T09:24:55;27.80;99.90
10083;DHT22;5080;48.528;8.078;2023-06-22T09:27:23;27.70;99.90
10083;DHT22;5080;48.528;8.078;2023-06-22T09:29:50;27.70;99.90
10083;DHT22;5080;48.528;8.078;2023-06-22T09:32:17;27.60;99.90
10083;DHT22;5080;48.528;8.078;2023-06-22T09:34:44;27.60;99.90
10083;DHT22;5080;48.528;8.078;2023-06-22T09:37:11;27.60;99.90
10083;DHT22;5080;48.528;8.078;2023-06-22T09:39:37;27.60;99.90
10083;DHT22;5080;48.528;8.078;2023-06-22T09:42:05;27.70;99.90
10083;DHT22;5080;48.528;8.078;2023-06-22T09:44:33;27.80;99.90
10083;DHT22;5080;48.528;8.078;2023-06-22T09:47:00;27.70;99.90
10083;DHT22;5080;48.528;8.078;2023-06-22T09:49:27;27.70;99.90
10083;DHT22;5080;48.528;8.078;2023-06-22T09:51:54;27.60;99.90
10083;DHT22;5080;48.528;8.078;2023-06-22T09:54:21;27.70;99.90
10083;DHT22;5080;48.528;8.078;2023-06-22T09:56:47;27.60;99.90
10083;DHT22;5080;48.528;8.078;2023-06-22T09:59:14;27.60;99.90
10083;DHT22;5080;48.528;8.078;2023-06-22T10:01:42;27.70;99.90
10083;DHT22;5080;48.528;8.078;2023-06-22T10:04:09;27.80;99.90
10083;DHT22;5080;48.528;8.078;2023-06-22T10:06:36;28.00;99.90
10083;DHT22;5080;48.528;8.078;2023-06-22T10:09:06;28.30;99.90
10083;DHT22;5080;48.528;8.078;2023-06-22T10:11:33;28.60;99.90
10083;DHT22;5080;48.528;8.078;2023-06-22T10:14:01;28.60;99.90
10083;DHT22;5080;48.528;8.078;2023-06-22T10:16:31;28.50;99.90
10083;DHT22;5080;48.528;8.078;2023-06-22T10:18:59;28.50;99.90
10083;DHT22;5080;48.528;8.078;2023-06-22T10:21:26;28.70;99.90
10083;DHT22;5080;48.528;8.078;2023-06-22T10:23:54;28.80;99.90
10083;DHT22;5080;48.528;8.078;2023-06-22T10:26:21;28.90;99.90
10083;DHT22;5080;48.528;8.078;2023-06-22T10:28:48;28.90;99.90
10083;DHT22;5080;48.528;8.078;2023-06-22T10:31:15;28.70;99.90
10083;DHT22;5080;48.528;8.078;2023-06-22T10:33:42;28.70;99.90
10083;DHT22;5080;48.528;8.078;2023-06-22T10:36:10;28.90;99.90
10083;DHT22;5080;48.528;8.078;2023-06-22T10:38:37;29.10;99.90
10083;DHT22;5080;48.528;8.078;2023-06-22T10:41:04;29.30;99.90
10083;DHT22;5080;48.528;8.078;2023-06-22T10:43:31;29.50;99.90
10083;DHT22;5080;48.528;8.078;2023-06-22T10:45:58;29.40;99.90
10083;DHT22;5080;48.528;8.078;2023-06-22T10:48:24;29.40;99.90
10083;DHT22;5080;48.528;8.078;2023-06-22T10:50:51;29.40;99.90
10083;DHT22;5080;48.528;8.078;2023-06-22T10:53:20;29.50;99.90
10083;DHT22;5080;48.528;8.078;2023-06-22T10:55:47;29.70;99.90
10083;DHT22;5080;48.528;8.078;2023-06-22T10:58:13;29.70;99.90
10083;DHT22;5080;48.528;8.078;2023-06-22T11:00:40;29.50;99.90
10083;DHT22;5080;48.528;8.078;2023-06-22T11:03:07;29.50;99.90
10083;DHT22;5080;48.528;8.078;2023-06-22T11:05:34;29.60;99.90
10083;DHT22;5080;48.528;8.078;2023-06-22T11:08:01;29.70;99.90
10083;DHT22;5080;48.528;8.078;2023-06-22T11:10:29;29.80;99.90
10083;DHT22;5080;48.528;8.078;2023-06-22T11:12:56;29.90;99.90
10083;DHT22;5080;48.528;8.078;2023-06-22T11:15:23;29.80;99.90
10083;DHT22;5080;48.528;8.078;2023-06-22T11:17:50;29.80;99.90
10083;DHT22;5080;48.528;8.078;2023-06-22T11:20:17;29.80;99.90
10083;DHT22;5080;48.528;8.078;2023-06-22T11:22:44;29.80;99.90
10083;DHT22;5080;48.528;8.078;2023-06-22T11:25:11;29.70;99.90
10083;DHT22;5080;48.528;8.078;2023-06-22T11:27:39;29.70;99.90
10083;DHT22;5080;48.528;8.078;2023-06-22T11:30:07;29.80;99.90
10083;DHT22;5080;48.528;8.078;2023-06-22T11:32:34;29.80;99.90
10083;DHT22;5080;48.528;8.078;2023-06-22T11:35:01;29.70;99.90
10083;DHT22;5080;48.528;8.078;2023-06-22T11:37:28;29.60;99.90
10083;DHT22;5080;48.528;8.078;2023-06-22T11:39:54;29.60;99.90
10083;DHT22;5080;48.528;8.078;2023-06-22T11:42:21;29.60;99.90
10083;DHT22;5080;48.528;8.078;2023-06-22T11:44:52;29.50;99.90
10083;DHT22;5080;48.528;8.078;2023-06-22T11:47:18;29.30;99.90
10083;DHT22;5080;48.528;8.078;2023-06-22T11:49:45;29.30;99.90
10083;DHT22;5080;48.528;8.078;2023-06-22T11:52:12;29.40;99.90
10083;DHT22;5080;48.528;8.078;2023-06-22T11:54:39;29.40;99.90
10083;DHT22;5080;48.528;8.078;2023-06-22T11:57:05;29.30;99.90
10083;DHT22;5080;48.528;8.078;2023-06-22T11:59:32;29.30;99.90
10083;DHT22;5080;48.528;8.078;2023-06-22T12:02:00;29.30;99.90
10083;DHT22;5080;48.528;8.078;2023-06-22T12:04:27;29.30;99.90
10083;DHT22;5080;48.528;8.078;2023-06-22T12:06:54;29.20;99.90
10083;DHT22;5080;48.528;8.078;2023-06-22T12:09:21;29.30;99.90
10083;DHT22;5080;48.528;8.078;2023-06-22T12:11:48;29.30;99.90
10083;DHT22;5080;48.528;8.078;2023-06-22T12:14:14;29.30;99.90
10083;DHT22;5080;48.528;8.078;2023-06-22T12:16:41;29.20;99.90
10083;DHT22;5080;48.528;8.078;2023-06-22T12:19:10;29.20;99.90
10083;DHT22;5080;48.528;8.078;2023-06-22T12:21:37;29.40;99.90
10083;DHT22;5080;48.528;8.078;2023-06-22T12:24:05;29.50;99.90
10083;DHT22;5080;48.528;8.078;2023-06-22T12:26:31;29.80;99.90
10083;DHT22;5080;48.528;8.078;2023-06-22T12:28:58;30.00;99.90
10083;DHT22;5080;48.528;8.078;2023-06-22T12:31:25;30.10;99.90
10083;DHT22;5080;48.528;8.078;2023-06-22T12:33:52;30.10;99.90
10083;DHT22;5080;48.528;8.078;2023-06-22T12:36:20;30.00;99.90
10083;DHT22;5080;48.528;8.078;2023-06-22T12:38:47;30.10;99.90
10083;DHT22;5080;48.528;8.078;2023-06-22T12:41:14;30.10;99.90
10083;DHT22;5080;48.528;8.078;2023-06-22T12:43:41;30.10;99.90
10083;DHT22;5080;48.528;8.078;2023-06-22T12:46:08;30.30;99.90
10083;DHT22;5080;48.528;8.078;2023-06-22T12:48:34;30.40;99.90
10083;DHT22;5080;48.528;8.078;2023-06-22T12:51:07;30.40;99.90
10083;DHT22;5080;48.528;8.078;2023-06-22T12:53:35;30.50;99.90
10083;DHT22;5080;48.528;8.078;2023-06-22T12:56:02;30.60;99.90
10083;DHT22;5080;48.528;8.078;2023-06-22T12:58:29;30.80;99.90
10083;DHT22;5080;48.528;8.078;2023-06-22T13:00:56;31.00;99.90
10083;DHT22;5080;48.528;8.078;2023-06-22T13:03:23;31.00;99.90
10083;DHT22;5080;48.528;8.078;2023-06-22T13:05:52;31.00;99.90
10083;DHT22;5080;48.528;8.078;2023-06-22T13:08:19;31.10;99.90
10083;DHT22;5080;48.528;8.078;2023-06-22T13:10:47;31.10;99.90
10083;DHT22;5080;48.528;8.078;2023-06-22T13:13:14;31.10;99.90
10083;DHT22;5080;48.528;8.078;2023-06-22T13:15:41;31.10;99.90
10083;DHT22;5080;48.528;8.078;2023-06-22T13:18:08;31.10;99.90
10083;DHT22;5080;48.528;8.078;2023-06-22T13:20:35;31.00;99.90
10083;DHT22;5080;48.528;8.078;2023-06-22T13:23:01;31.00;99.90
10083;DHT22;5080;48.528;8.078;2023-06-22T13:25:28;31.00;99.90
10083;DHT22;5080;48.528;8.078;2023-06-22T13:27:56;31.10;99.90
10083;DHT22;5080;48.528;8.078;2023-06-22T13:30:23;31.10;99.90
10083;DHT22;5080;48.528;8.078;2023-06-22T13:32:50;31.00;99.90
10083;DHT22;5080;48.528;8.078;2023-06-22T13:35:17;31.00;99.90
10083;DHT22;5080;48.528;8.078;2023-06-22T13:37:44;30.90;99.90
10083;DHT22;5080;48.528;8.078;2023-06-22T13:40:11;31.00;99.90
10083;DHT22;5080;48.528;8.078;2023-06-22T13:42:37;31.10;99.90
10083;DHT22;5080;48.528;8.078;2023-06-22T13:45:07;31.30;99.90
10083;DHT22;5080;48.528;8.078;2023-06-22T13:47:34;31.40;99.90
10083;DHT22;5080;48.528;8.078;2023-06-22T13:50:01;31.50;99.90
10083;DHT22;5080;48.528;8.078;2023-06-22T13:52:27;31.60;99.90
10083;DHT22;5080;48.528;8.078;2023-06-22T13:54:54;31.70;99.90
10083;DHT22;5080;48.528;8.078;2023-06-22T13:57:21;31.80;99.90
10083;DHT22;5080;48.528;8.078;2023-06-22T13:59:48;31.80;99.90
10083;DHT22;5080;48.528;8.078;2023-06-22T14:02:16;31.80;99.90
10083;DHT22;5080;48.528;8.078;2023-06-22T14:04:43;31.80;99.90
10083;DHT22;5080;48.528;8.078;2023-06-22T14:07:10;31.80;99.90
10083;DHT22;5080;48.528;8.078;2023-06-22T14:09:36;31.70;99.90
10083;DHT22;5080;48.528;8.078;2023-06-22T14:12:04;31.70;99.90
10083;DHT22;5080;48.528;8.078;2023-06-22T14:14:31;31.70;99.90
10083;DHT22;5080;48.528;8.078;2023-06-22T14:16:58;31.80;99.90
10083;DHT22;5080;48.528;8.078;2023-06-22T14:19:26;31.90;99.90
10083;DHT22;5080;48.528;8.078;2023-06-22T14:21:53;32.00;99.90
10083;DHT22;5080;48.528;8.078;2023-06-22T14:24:20;32.10;99.90
10083;DHT22;5080;48.528;8.078;2023-06-22T14:26:47;32.20;99.90
10083;DHT22;5080;48.528;8.078;2023-06-22T14:29:13;32.20;99.90
10083;DHT22;5080;48.528;8.078;2023-06-22T14:31:44;32.20;99.90
10083;DHT22;5080;48.528;8.078;2023-06-22T14:34:12;32.30;99.90
10083;DHT22;5080;48.528;8.078;2023-06-22T14:36:40;32.40;99.90
10083;DHT22;5080;48.528;8.078;2023-06-22T14:39:07;32.40;99.90
10083;DHT22;5080;48.528;8.078;2023-06-22T14:41:34;32.30;99.90
10083;DHT22;5080;48.528;8.078;2023-06-22T14:44:01;32.30;99.90
10083;DHT22;5080;48.528;8.078;2023-06-22T14:46:28;32.30;99.90
10083;DHT22;5080;48.528;8.078;2023-06-22T14:48:55;32.30;99.90
10083;DHT22;5080;48.528;8.078;2023-06-22T14:51:22;32.30;99.90
10083;DHT22;5080;48.528;8.078;2023-06-22T14:53:50;32.30;99.90
10083;DHT22;5080;48.528;8.078;2023-06-22T14:56:17;32.30;99.90
10083;DHT22;5080;48.528;8.078;2023-06-22T14:58:44;32.30;99.90
10083;DHT22;5080;48.528;8.078;2023-06-22T15:01:11;32.20;99.90
10083;DHT22;5080;48.528;8.078;2023-06-22T15:03:38;32.20;99.90
10083;DHT22;5080;48.528;8.078;2023-06-22T15:06:05;32.30;99.90
10083;DHT22;5080;48.528;8.078;2023-06-22T15:08:33;32.50;99.90
10083;DHT22;5080;48.528;8.078;2023-06-22T15:11:01;32.60;99.90
10083;DHT22;5080;48.528;8.078;2023-06-22T15:13:29;32.60;99.90
10083;DHT22;5080;48.528;8.078;2023-06-22T15:15:59;32.60;99.90
10083;DHT22;5080;48.528;8.078;2023-06-22T15:18:26;32.70;99.90
10083;DHT22;5080;48.528;8.078;2023-06-22T15:20:53;32.50;99.90
10083;DHT22;5080;48.528;8.078;2023-06-22T15:23:20;32.60;99.90
10083;DHT22;5080;48.528;8.078;2023-06-22T15:25:47;32.70;99.90
10083;DHT22;5080;48.528;8.078;2023-06-22T15:28:15;32.70;99.90
10083;DHT22;5080;48.528;8.078;2023-06-22T15:30:42;32.80;99.90
10083;DHT22;5080;48.528;8.078;2023-06-22T15:33:09;32.90;99.90
10083;DHT22;5080;48.528;8.078;2023-06-22T15:35:35;33.00;99.90
10083;DHT22;5080;48.528;8.078;2023-06-22T15:38:02;33.10;99.90
10083;DHT22;5080;48.528;8.078;2023-06-22T15:40:29;33.10;99.90
10083;DHT22;5080;48.528;8.078;2023-06-22T15:42:56;33.10;99.90
10083;DHT22;5080;48.528;8.078;2023-06-22T15:45:25;33.20;99.90
10083;DHT22;5080;48.528;8.078;2023-06-22T15:47:51;33.20;99.90